sensor_id;sensor_type;location;lat;lon;timestamp;P1;durP1;ratioP1;P2;durP2;ratioP2
50417;SDS011;36346;48.280;14.292;2022-10-31T00:01:31;13.24;;;13.24;;
50417;SDS011;36346;48.280;14.292;2022-10-31T00:04:01;13.60;;;13.59;;
50417;SDS011;36346;48.280;14.292;2022-10-31T00:06:30;13.20;;;13.20;;
50417;SDS011;36346;48.280;14.292;2022-10-31T00:08:59;13.39;;;13.35;;
50417;SDS011;36346;48.280;14.292;2022-10-31T00:11:29;12.43;;;12.43;;
50417;SDS011;36346;48.280;14.292;2022-10-31T00:13:57;12.74;;;12.74;;
50417;SDS011;36346;48.280;14.292;2022-10-31T00:16:26;12.26;;;12.26;;
50417;SDS011;36346;48.280;14.292;2022-10-31T00:18:56;11.67;;;11.67;;
50417;SDS011;36346;48.280;14.292;2022-10-31T00:21:27;11.75;;;11.75;;
50417;SDS011;36346;48.280;14.292;2022-10-31T00:23:56;11.63;;;11.63;;
50417;SDS011;36346;48.280;14.292;2022-10-31T00:26:27;11.71;;;11.71;;
50417;SDS011;36346;48.280;14.292;2022-10-31T00:28:56;12.54;;;12.54;;
50417;SDS011;36346;48.280;14.292;2022-10-31T00:31:24;13.06;;;13.06;;
50417;SDS011;36346;48.280;14.292;2022-10-31T00:33:53;14.91;;;14.91;;
50417;SDS011;36346;48.280;14.292;2022-10-31T00:36:21;15.17;;;15.11;;
50417;SDS011;36346;48.280;14.292;2022-10-31T00:38:49;14.82;;;14.76;;
50417;SDS011;36346;48.280;14.292;2022-10-31T00:41:17;14.51;;;14.45;;
50417;SDS011;36346;48.280;14.292;2022-10-31T00:43:46;14.73;;;14.69;;
50417;SDS011;36346;48.280;14.292;2022-10-31T00:46:15;14.73;;;14.71;;
50417;SDS011;36346;48.280;14.292;2022-10-31T00:48:43;15.23;;;15.20;;
50417;SDS011;36346;48.280;14.292;2022-10-31T00:51:11;16.04;;;15.99;;
50417;SDS011;36346;48.280;14.292;2022-10-31T00:53:41;16.62;;;16.50;;
50417;SDS011;36346;48.280;14.292;2022-10-31T00:56:10;17.01;;;16.88;;
50417;SDS011;36346;48.280;14.292;2022-10-31T00:58:38;17.80;;;17.71;;
50417;SDS011;36346;48.280;14.292;2022-10-31T01:01:07;18.72;;;18.70;;
50417;SDS011;36346;48.280;14.292;2022-10-31T01:03:35;20.02;;;19.91;;
50417;SDS011;36346;48.280;14.292;2022-10-31T01:08:36;18.45;;;18.39;;
50417;SDS011;36346;48.280;14.292;2022-10-31T01:13:40;21.41;;;21.25;;
50417;SDS011;36346;48.280;14.292;2022-10-31T01:16:10;24.20;;;23.99;;
50417;SDS011;36346;48.280;14.292;2022-10-31T01:18:39;23.94;;;23.70;;
50417;SDS011;36346;48.280;14.292;2022-10-31T01:21:09;22.33;;;22.17;;
50417;SDS011;36346;48.280;14.292;2022-10-31T01:23:39;22.58;;;22.30;;
50417;SDS011;36346;48.280;14.292;2022-10-31T01:28:47;21.17;;;21.03;;
50417;SDS011;36346;48.280;14.292;2022-10-31T01:31:16;22.37;;;22.15;;
50417;SDS011;36346;48.280;14.292;2022-10-31T01:33:46;22.46;;;22.29;;
50417;SDS011;36346;48.280;14.292;2022-10-31T01:36:16;22.19;;;22.08;;
50417;SDS011;36346;48.280;14.292;2022-10-31T01:38:52;21.77;;;21.59;;
50417;SDS011;36346;48.280;14.292;2022-10-31T01:41:22;23.24;;;23.05;;
50417;SDS011;36346;48.280;14.292;2022-10-31T01:46:23;23.84;;;23.65;;
50417;SDS011;36346;48.280;14.292;2022-10-31T01:49:01;24.20;;;24.00;;
50417;SDS011;36346;48.280;14.292;2022-10-31T01:51:33;21.73;;;21.61;;
50417;SDS011;36346;48.280;14.292;2022-10-31T01:54:06;19.13;;;18.98;;
50417;SDS011;36346;48.280;14.292;2022-10-31T01:56:37;18.35;;;18.29;;
50417;SDS011;36346;48.280;14.292;2022-10-31T01:59:09;18.23;;;18.15;;
50417;SDS011;36346;48.280;14.292;2022-10-31T02:01:40;18.32;;;18.24;;
50417;SDS011;36346;48.280;14.292;2022-10-31T02:04:09;18.01;;;17.96;;
50417;SDS011;36346;48.280;14.292;2022-10-31T02:09:15;18.75;;;18.69;;
50417;SDS011;36346;48.280;14.292;2022-10-31T02:11:44;19.29;;;19.22;;
50417;SDS011;36346;48.280;14.292;2022-10-31T02:14:12;19.35;;;19.22;;
50417;SDS011;36346;48.280;14.292;2022-10-31T02:16:40;19.02;;;18.90;;
50417;SDS011;36346;48.280;14.292;2022-10-31T02:19:08;18.92;;;18.83;;
50417;SDS011;36346;48.280;14.292;2022-10-31T02:30:02;19.89;;;19.66;;
50417;SDS011;36346;48.280;14.292;2022-10-31T02:38:06;19.01;;;18.88;;
50417;SDS011;36346;48.280;14.292;2022-10-31T02:40:48;19.16;;;19.05;;
50417;SDS011;36346;48.280;14.292;2022-10-31T02:46:29;19.21;;;19.05;;
50417;SDS011;36346;48.280;14.292;2022-10-31T02:49:07;19.39;;;19.32;;
50417;SDS011;36346;48.280;14.292;2022-10-31T02:51:59;19.16;;;19.04;;
50417;SDS011;36346;48.280;14.292;2022-10-31T02:54:27;19.18;;;19.10;;
50417;SDS011;36346;48.280;14.292;2022-10-31T02:57:00;19.47;;;19.37;;
50417;SDS011;36346;48.280;14.292;2022-10-31T02:59:33;20.65;;;20.43;;
50417;SDS011;36346;48.280;14.292;2022-10-31T03:02:13;20.79;;;20.70;;
50417;SDS011;36346;48.280;14.292;2022-10-31T03:04:54;22.90;;;22.76;;
50417;SDS011;36346;48.280;14.292;2022-10-31T03:07:40;21.51;;;21.28;;
50417;SDS011;36346;48.280;14.292;2022-10-31T03:12:54;20.48;;;20.36;;
50417;SDS011;36346;48.280;14.292;2022-10-31T03:15:40;19.29;;;19.16;;
50417;SDS011;36346;48.280;14.292;2022-10-31T03:18:16;18.54;;;18.42;;
50417;SDS011;36346;48.280;14.292;2022-10-31T03:21:09;17.66;;;17.46;;
50417;SDS011;36346;48.280;14.292;2022-10-31T03:23:43;17.68;;;17.61;;
50417;SDS011;36346;48.280;14.292;2022-10-31T03:26:19;17.54;;;17.48;;
50417;SDS011;36346;48.280;14.292;2022-10-31T03:28:50;16.88;;;16.69;;
50417;SDS011;36346;48.280;14.292;2022-10-31T03:31:29;17.48;;;17.30;;
50417;SDS011;36346;48.280;14.292;2022-10-31T03:34:00;17.23;;;17.09;;
50417;SDS011;36346;48.280;14.292;2022-10-31T03:36:33;16.53;;;16.43;;
50417;SDS011;36346;48.280;14.292;2022-10-31T03:39:04;16.00;;;15.92;;
50417;SDS011;36346;48.280;14.292;2022-10-31T03:41:38;16.01;;;15.78;;
50417;SDS011;36346;48.280;14.292;2022-10-31T03:44:14;16.56;;;16.37;;
50417;SDS011;36346;48.280;14.292;2022-10-31T03:46:52;16.60;;;16.52;;
50417;SDS011;36346;48.280;14.292;2022-10-31T03:49:21;16.74;;;16.72;;
50417;SDS011;36346;48.280;14.292;2022-10-31T03:57:21;17.21;;;17.11;;
50417;SDS011;36346;48.280;14.292;2022-10-31T04:00:04;17.06;;;16.92;;
50417;SDS011;36346;48.280;14.292;2022-10-31T04:02:45;16.70;;;16.55;;
50417;SDS011;36346;48.280;14.292;2022-10-31T04:05:37;16.61;;;16.45;;
50417;SDS011;36346;48.280;14.292;2022-10-31T04:08:09;15.59;;;15.48;;
50417;SDS011;36346;48.280;14.292;2022-10-31T04:10:43;15.78;;;15.71;;
50417;SDS011;36346;48.280;14.292;2022-10-31T04:13:16;15.14;;;15.02;;
50417;SDS011;36346;48.280;14.292;2022-10-31T04:15:56;15.46;;;15.32;;
50417;SDS011;36346;48.280;14.292;2022-10-31T04:18:26;15.77;;;15.65;;
50417;SDS011;36346;48.280;14.292;2022-10-31T04:21:01;14.99;;;14.84;;
50417;SDS011;36346;48.280;14.292;2022-10-31T04:23:30;16.04;;;15.95;;
50417;SDS011;36346;48.280;14.292;2022-10-31T04:26:03;16.88;;;16.74;;
50417;SDS011;36346;48.280;14.292;2022-10-31T04:28:31;16.74;;;16.64;;
50417;SDS011;36346;48.280;14.292;2022-10-31T04:31:01;16.42;;;16.31;;
50417;SDS011;36346;48.280;14.292;2022-10-31T04:33:30;16.46;;;16.34;;
50417;SDS011;36346;48.280;14.292;2022-10-31T04:35:58;16.03;;;15.86;;
50417;SDS011;36346;48.280;14.292;2022-10-31T04:38:28;17.31;;;17.13;;
50417;SDS011;36346;48.280;14.292;2022-10-31T04:40:56;16.73;;;16.65;;
50417;SDS011;36346;48.280;14.292;2022-10-31T04:43:47;16.14;;;16.01;;
50417;SDS011;36346;48.280;14.292;2022-10-31T04:46:16;17.61;;;17.41;;
50417;SDS011;36346;48.280;14.292;2022-10-31T04:48:44;17.85;;;17.61;;
50417;SDS011;36346;48.280;14.292;2022-10-31T04:51:12;19.47;;;19.29;;
50417;SDS011;36346;48.280;14.292;2022-10-31T04:53:40;21.64;;;21.31;;
50417;SDS011;36346;48.280;14.292;2022-10-31T04:56:26;21.43;;;21.00;;
50417;SDS011;36346;48.280;14.292;2022-10-31T04:59:00;20.87;;;20.41;;
50417;SDS011;36346;48.280;14.292;2022-10-31T05:01:36;20.91;;;20.62;;
50417;SDS011;36346;48.280;14.292;2022-10-31T05:04:04;21.18;;;20.80;;
50417;SDS011;36346;48.280;14.292;2022-10-31T05:06:32;21.32;;;20.99;;
50417;SDS011;36346;48.280;14.292;2022-10-31T05:09:00;20.86;;;20.66;;
50417;SDS011;36346;48.280;14.292;2022-10-31T05:11:29;21.58;;;21.25;;
50417;SDS011;36346;48.280;14.292;2022-10-31T05:14:06;21.78;;;21.51;;
50417;SDS011;36346;48.280;14.292;2022-10-31T05:16:53;21.75;;;21.58;;
50417;SDS011;36346;48.280;14.292;2022-10-31T05:19:40;23.68;;;23.35;;
50417;SDS011;36346;48.280;14.292;2022-10-31T05:22:28;23.51;;;23.17;;
50417;SDS011;36346;48.280;14.292;2022-10-31T05:24:56;23.34;;;23.09;;
50417;SDS011;36346;48.280;14.292;2022-10-31T05:27:25;30.09;;;29.46;;
50417;SDS011;36346;48.280;14.292;2022-10-31T05:29:53;39.37;;;37.79;;
50417;SDS011;36346;48.280;14.292;2022-10-31T05:32:21;39.68;;;38.32;;
50417;SDS011;36346;48.280;14.292;2022-10-31T05:35:10;37.66;;;36.49;;
50417;SDS011;36346;48.280;14.292;2022-10-31T05:38:00;38.07;;;36.73;;
50417;SDS011;36346;48.280;14.292;2022-10-31T05:40:28;39.08;;;37.65;;
50417;SDS011;36346;48.280;14.292;2022-10-31T05:42:56;38.40;;;37.13;;
50417;SDS011;36346;48.280;14.292;2022-10-31T05:45:26;37.88;;;36.75;;
50417;SDS011;36346;48.280;14.292;2022-10-31T05:48:01;40.68;;;39.16;;
50417;SDS011;36346;48.280;14.292;2022-10-31T05:51:02;40.28;;;38.74;;
50417;SDS011;36346;48.280;14.292;2022-10-31T05:53:30;38.40;;;37.31;;
50417;SDS011;36346;48.280;14.292;2022-10-31T05:55:58;40.12;;;38.58;;
50417;SDS011;36346;48.280;14.292;2022-10-31T05:58:26;38.98;;;37.78;;
50417;SDS011;36346;48.280;14.292;2022-10-31T06:01:01;40.48;;;39.06;;
50417;SDS011;36346;48.280;14.292;2022-10-31T06:03:29;38.73;;;37.45;;
50417;SDS011;36346;48.280;14.292;2022-10-31T06:05:58;38.92;;;37.77;;
50417;SDS011;36346;48.280;14.292;2022-10-31T06:08:33;39.17;;;38.06;;
50417;SDS011;36346;48.280;14.292;2022-10-31T06:11:05;38.67;;;37.58;;
50417;SDS011;36346;48.280;14.292;2022-10-31T06:13:51;39.25;;;37.84;;
50417;SDS011;36346;48.280;14.292;2022-10-31T06:16:24;39.69;;;38.52;;
50417;SDS011;36346;48.280;14.292;2022-10-31T06:18:54;44.72;;;43.26;;
50417;SDS011;36346;48.280;14.292;2022-10-31T06:21:23;43.42;;;41.89;;
50417;SDS011;36346;48.280;14.292;2022-10-31T06:23:51;42.44;;;41.42;;
50417;SDS011;36346;48.280;14.292;2022-10-31T06:26:57;41.59;;;40.42;;
50417;SDS011;36346;48.280;14.292;2022-10-31T06:29:26;42.28;;;40.98;;
50417;SDS011;36346;48.280;14.292;2022-10-31T06:32:06;42.45;;;41.42;;
50417;SDS011;36346;48.280;14.292;2022-10-31T06:34:40;41.42;;;40.33;;
50417;SDS011;36346;48.280;14.292;2022-10-31T06:37:10;42.31;;;41.02;;
50417;SDS011;36346;48.280;14.292;2022-10-31T06:39:42;40.82;;;39.43;;
50417;SDS011;36346;48.280;14.292;2022-10-31T06:42:11;42.84;;;40.86;;
50417;SDS011;36346;48.280;14.292;2022-10-31T06:44:39;41.35;;;39.94;;
50417;SDS011;36346;48.280;14.292;2022-10-31T06:47:26;43.03;;;41.55;;
50417;SDS011;36346;48.280;14.292;2022-10-31T06:49:58;42.17;;;40.75;;
50417;SDS011;36346;48.280;14.292;2022-10-31T06:52:26;42.98;;;41.39;;
50417;SDS011;36346;48.280;14.292;2022-10-31T06:54:56;42.35;;;41.03;;
50417;SDS011;36346;48.280;14.292;2022-10-31T06:57:24;41.49;;;40.09;;
50417;SDS011;36346;48.280;14.292;2022-10-31T06:59:52;42.65;;;41.18;;
50417;SDS011;36346;48.280;14.292;2022-10-31T07:02:40;44.07;;;42.41;;
50417;SDS011;36346;48.280;14.292;2022-10-31T07:05:08;43.66;;;41.99;;
50417;SDS011;36346;48.280;14.292;2022-10-31T07:07:36;42.77;;;41.11;;
50417;SDS011;36346;48.280;14.292;2022-10-31T07:10:04;42.97;;;41.19;;
50417;SDS011;36346;48.280;14.292;2022-10-31T07:12:45;42.66;;;41.00;;
50417;SDS011;36346;48.280;14.292;2022-10-31T07:15:15;41.96;;;40.67;;
50417;SDS011;36346;48.280;14.292;2022-10-31T07:17:43;41.68;;;40.42;;
50417;SDS011;36346;48.280;14.292;2022-10-31T07:20:11;42.74;;;41.58;;
50417;SDS011;36346;48.280;14.292;2022-10-31T07:22:41;42.67;;;41.38;;
50417;SDS011;36346;48.280;14.292;2022-10-31T07:25:13;44.75;;;42.80;;
50417;SDS011;36346;48.280;14.292;2022-10-31T07:27:59;44.85;;;43.11;;
50417;SDS011;36346;48.280;14.292;2022-10-31T07:30:28;44.82;;;43.47;;
50417;SDS011;36346;48.280;14.292;2022-10-31T07:32:57;43.86;;;42.57;;
50417;SDS011;36346;48.280;14.292;2022-10-31T07:35:38;43.83;;;42.32;;
50417;SDS011;36346;48.280;14.292;2022-10-31T07:38:06;45.51;;;43.99;;
50417;SDS011;36346;48.280;14.292;2022-10-31T07:40:36;45.79;;;44.65;;
50417;SDS011;36346;48.280;14.292;2022-10-31T07:43:04;46.07;;;44.63;;
50417;SDS011;36346;48.280;14.292;2022-10-31T07:45:57;44.79;;;43.36;;
50417;SDS011;36346;48.280;14.292;2022-10-31T07:48:51;46.60;;;44.80;;
50417;SDS011;36346;48.280;14.292;2022-10-31T07:51:51;44.79;;;43.17;;
50417;SDS011;36346;48.280;14.292;2022-10-31T07:54:37;46.10;;;44.28;;
50417;SDS011;36346;48.280;14.292;2022-10-31T07:57:08;45.79;;;43.79;;
50417;SDS011;36346;48.280;14.292;2022-10-31T07:59:38;46.95;;;44.86;;
50417;SDS011;36346;48.280;14.292;2022-10-31T08:02:07;47.10;;;45.27;;
50417;SDS011;36346;48.280;14.292;2022-10-31T08:04:48;46.19;;;44.81;;
50417;SDS011;36346;48.280;14.292;2022-10-31T08:07:29;46.86;;;45.17;;
50417;SDS011;36346;48.280;14.292;2022-10-31T08:10:04;48.23;;;46.27;;
50417;SDS011;36346;48.280;14.292;2022-10-31T08:12:34;46.88;;;44.71;;
50417;SDS011;36346;48.280;14.292;2022-10-31T08:15:04;48.43;;;46.10;;
50417;SDS011;36346;48.280;14.292;2022-10-31T08:17:35;49.66;;;47.30;;
50417;SDS011;36346;48.280;14.292;2022-10-31T08:20:04;49.00;;;47.05;;
50417;SDS011;36346;48.280;14.292;2022-10-31T08:22:40;46.78;;;44.86;;
50417;SDS011;36346;48.280;14.292;2022-10-31T08:25:11;44.21;;;42.64;;
50417;SDS011;36346;48.280;14.292;2022-10-31T08:27:39;44.70;;;43.10;;
50417;SDS011;36346;48.280;14.292;2022-10-31T08:30:15;44.49;;;42.59;;
50417;SDS011;36346;48.280;14.292;2022-10-31T08:35:53;43.79;;;41.88;;
50417;SDS011;36346;48.280;14.292;2022-10-31T08:38:39;44.17;;;42.28;;
50417;SDS011;36346;48.280;14.292;2022-10-31T08:41:09;43.92;;;42.13;;
50417;SDS011;36346;48.280;14.292;2022-10-31T08:43:38;43.17;;;41.77;;
50417;SDS011;36346;48.280;14.292;2022-10-31T08:46:06;44.66;;;42.50;;
50417;SDS011;36346;48.280;14.292;2022-10-31T08:48:34;43.97;;;42.44;;
50417;SDS011;36346;48.280;14.292;2022-10-31T08:51:03;45.04;;;43.33;;
50417;SDS011;36346;48.280;14.292;2022-10-31T08:53:32;46.01;;;44.34;;
50417;SDS011;36346;48.280;14.292;2022-10-31T08:56:26;45.14;;;42.94;;
50417;SDS011;36346;48.280;14.292;2022-10-31T08:58:54;46.10;;;43.96;;
50417;SDS011;36346;48.280;14.292;2022-10-31T09:01:32;43.04;;;41.43;;
50417;SDS011;36346;48.280;14.292;2022-10-31T09:04:00;44.96;;;42.86;;
50417;SDS011;36346;48.280;14.292;2022-10-31T09:06:28;43.33;;;41.72;;
50417;SDS011;36346;48.280;14.292;2022-10-31T09:08:56;42.22;;;40.61;;
50417;SDS011;36346;48.280;14.292;2022-10-31T09:11:26;43.10;;;41.48;;
50417;SDS011;36346;48.280;14.292;2022-10-31T09:14:17;43.75;;;42.24;;
50417;SDS011;36346;48.280;14.292;2022-10-31T09:17:07;42.97;;;41.71;;
50417;SDS011;36346;48.280;14.292;2022-10-31T09:19:52;42.51;;;41.08;;
50417;SDS011;36346;48.280;14.292;2022-10-31T09:22:26;42.49;;;41.29;;
50417;SDS011;36346;48.280;14.292;2022-10-31T09:24:54;46.83;;;45.24;;
50417;SDS011;36346;48.280;14.292;2022-10-31T09:27:22;48.08;;;46.18;;
50417;SDS011;36346;48.280;14.292;2022-10-31T09:29:53;50.79;;;48.77;;
50417;SDS011;36346;48.280;14.292;2022-10-31T09:32:21;46.55;;;44.68;;
50417;SDS011;36346;48.280;14.292;2022-10-31T09:34:50;46.78;;;45.10;;
50417;SDS011;36346;48.280;14.292;2022-10-31T09:37:21;47.83;;;45.83;;
50417;SDS011;36346;48.280;14.292;2022-10-31T09:39:51;49.77;;;47.75;;
50417;SDS011;36346;48.280;14.292;2022-10-31T09:42:56;50.05;;;47.54;;
50417;SDS011;36346;48.280;14.292;2022-10-31T09:45:34;48.23;;;46.30;;
50417;SDS011;36346;48.280;14.292;2022-10-31T09:48:37;47.92;;;45.69;;
50417;SDS011;36346;48.280;14.292;2022-10-31T09:51:25;49.74;;;47.54;;
50417;SDS011;36346;48.280;14.292;2022-10-31T09:54:15;51.01;;;48.74;;
50417;SDS011;36346;48.280;14.292;2022-10-31T09:56:47;54.56;;;51.65;;
50417;SDS011;36346;48.280;14.292;2022-10-31T09:59:35;58.74;;;54.59;;
50417;SDS011;36346;48.280;14.292;2022-10-31T10:02:13;60.15;;;56.41;;
50417;SDS011;36346;48.280;14.292;2022-10-31T10:05:18;61.96;;;58.69;;
50417;SDS011;36346;48.280;14.292;2022-10-31T10:17:16;64.85;;;60.38;;
50417;SDS011;36346;48.280;14.292;2022-10-31T10:20:16;64.84;;;60.62;;
50417;SDS011;36346;48.280;14.292;2022-10-31T10:22:52;67.40;;;62.27;;
50417;SDS011;36346;48.280;14.292;2022-10-31T10:25:39;67.29;;;62.01;;
50417;SDS011;36346;48.280;14.292;2022-10-31T10:33:33;70.56;;;64.86;;
50417;SDS011;36346;48.280;14.292;2022-10-31T10:36:08;69.10;;;64.02;;
50417;SDS011;36346;48.280;14.292;2022-10-31T10:39:00;69.37;;;64.36;;
50417;SDS011;36346;48.280;14.292;2022-10-31T10:41:51;70.73;;;65.70;;
50417;SDS011;36346;48.280;14.292;2022-10-31T10:44:39;70.96;;;66.05;;
50417;SDS011;36346;48.280;14.292;2022-10-31T10:47:38;70.62;;;65.29;;
50417;SDS011;36346;48.280;14.292;2022-10-31T10:50:15;71.59;;;66.37;;
50417;SDS011;36346;48.280;14.292;2022-10-31T10:52:54;70.21;;;65.26;;
50417;SDS011;36346;48.280;14.292;2022-10-31T10:56:15;72.60;;;67.28;;
50417;SDS011;36346;48.280;14.292;2022-10-31T10:58:58;73.43;;;67.75;;
50417;SDS011;36346;48.280;14.292;2022-10-31T11:01:26;75.38;;;69.09;;
50417;SDS011;36346;48.280;14.292;2022-10-31T11:03:54;80.80;;;73.56;;
50417;SDS011;36346;48.280;14.292;2022-10-31T11:06:22;82.26;;;75.08;;
50417;SDS011;36346;48.280;14.292;2022-10-31T11:08:53;83.65;;;76.30;;
50417;SDS011;36346;48.280;14.292;2022-10-31T11:11:25;92.51;;;82.71;;
50417;SDS011;36346;48.280;14.292;2022-10-31T11:14:05;100.43;;;89.12;;
50417;SDS011;36346;48.280;14.292;2022-10-31T11:16:42;101.97;;;90.00;;
50417;SDS011;36346;48.280;14.292;2022-10-31T11:21:42;82.90;;;75.82;;
50417;SDS011;36346;48.280;14.292;2022-10-31T11:24:22;83.18;;;76.33;;
50417;SDS011;36346;48.280;14.292;2022-10-31T11:27:03;91.16;;;81.96;;
50417;SDS011;36346;48.280;14.292;2022-10-31T11:29:39;114.53;;;99.14;;
50417;SDS011;36346;48.280;14.292;2022-10-31T11:32:08;120.26;;;103.63;;
50417;SDS011;36346;48.280;14.292;2022-10-31T11:34:55;115.61;;;100.71;;
50417;SDS011;36346;48.280;14.292;2022-10-31T11:37:27;108.77;;;95.78;;
50417;SDS011;36346;48.280;14.292;2022-10-31T11:39:59;118.90;;;102.91;;
50417;SDS011;36346;48.280;14.292;2022-10-31T11:42:38;111.87;;;98.57;;
50417;SDS011;36346;48.280;14.292;2022-10-31T11:45:14;109.52;;;96.58;;
50417;SDS011;36346;48.280;14.292;2022-10-31T11:47:55;102.91;;;91.97;;
50417;SDS011;36346;48.280;14.292;2022-10-31T11:50:34;103.41;;;92.38;;
50417;SDS011;36346;48.280;14.292;2022-10-31T11:53:14;103.89;;;92.31;;
50417;SDS011;36346;48.280;14.292;2022-10-31T11:55:45;94.76;;;85.69;;
50417;SDS011;36346;48.280;14.292;2022-10-31T11:58:22;92.97;;;84.77;;
50417;SDS011;36346;48.280;14.292;2022-10-31T12:00:52;82.82;;;76.70;;
50417;SDS011;36346;48.280;14.292;2022-10-31T12:05:58;79.69;;;74.00;;
50417;SDS011;36346;48.280;14.292;2022-10-31T12:08:30;77.54;;;72.04;;
50417;SDS011;36346;48.280;14.292;2022-10-31T12:13:41;77.82;;;72.61;;
50417;SDS011;36346;48.280;14.292;2022-10-31T12:16:21;75.29;;;70.81;;
50417;SDS011;36346;48.280;14.292;2022-10-31T12:19:09;73.65;;;69.43;;
50417;SDS011;36346;48.280;14.292;2022-10-31T12:27:48;71.77;;;68.06;;
50417;SDS011;36346;48.280;14.292;2022-10-31T12:39:12;68.02;;;65.14;;
50417;SDS011;36346;48.280;14.292;2022-10-31T12:44:54;63.83;;;61.15;;
50417;SDS011;36346;48.280;14.292;2022-10-31T12:58:39;57.42;;;55.77;;
50417;SDS011;36346;48.280;14.292;2022-10-31T13:01:20;56.58;;;54.81;;
50417;SDS011;36346;48.280;14.292;2022-10-31T13:06:48;54.56;;;53.13;;
50417;SDS011;36346;48.280;14.292;2022-10-31T13:09:27;53.95;;;52.73;;
50417;SDS011;36346;48.280;14.292;2022-10-31T13:12:02;52.74;;;51.52;;
50417;SDS011;36346;48.280;14.292;2022-10-31T13:14:38;50.91;;;49.76;;
50417;SDS011;36346;48.280;14.292;2022-10-31T13:17:13;49.74;;;48.70;;
50417;SDS011;36346;48.280;14.292;2022-10-31T13:19:53;48.84;;;47.50;;
50417;SDS011;36346;48.280;14.292;2022-10-31T13:22:48;45.65;;;44.84;;
50417;SDS011;36346;48.280;14.292;2022-10-31T13:30:30;41.20;;;40.76;;
50417;SDS011;36346;48.280;14.292;2022-10-31T13:33:07;41.15;;;40.66;;
50417;SDS011;36346;48.280;14.292;2022-10-31T13:38:24;39.32;;;38.93;;
50417;SDS011;36346;48.280;14.292;2022-10-31T13:41:03;40.26;;;39.65;;
50417;SDS011;36346;48.280;14.292;2022-10-31T13:54:40;37.46;;;37.05;;
50417;SDS011;36346;48.280;14.292;2022-10-31T14:02:48;36.39;;;35.99;;
50417;SDS011;36346;48.280;14.292;2022-10-31T14:05:25;34.96;;;34.62;;
50417;SDS011;36346;48.280;14.292;2022-10-31T14:07:55;35.24;;;34.97;;
50417;SDS011;36346;48.280;14.292;2022-10-31T14:13:07;37.17;;;36.84;;
50417;SDS011;36346;48.280;14.292;2022-10-31T14:15:51;34.48;;;34.40;;
50417;SDS011;36346;48.280;14.292;2022-10-31T14:18:22;33.33;;;33.19;;
50417;SDS011;36346;48.280;14.292;2022-10-31T14:20:53;33.48;;;33.27;;
50417;SDS011;36346;48.280;14.292;2022-10-31T14:26:18;32.59;;;32.38;;
50417;SDS011;36346;48.280;14.292;2022-10-31T14:28:47;32.20;;;32.02;;
50417;SDS011;36346;48.280;14.292;2022-10-31T14:31:36;33.38;;;33.21;;
50417;SDS011;36346;48.280;14.292;2022-10-31T14:43:59;35.58;;;35.06;;
50417;SDS011;36346;48.280;14.292;2022-10-31T14:51:52;35.57;;;35.33;;
50417;SDS011;36346;48.280;14.292;2022-10-31T14:54:28;35.45;;;35.35;;
50417;SDS011;36346;48.280;14.292;2022-10-31T14:57:04;36.80;;;36.39;;
50417;SDS011;36346;48.280;14.292;2022-10-31T14:59:36;34.99;;;34.86;;
50417;SDS011;36346;48.280;14.292;2022-10-31T15:02:34;34.92;;;34.73;;
50417;SDS011;36346;48.280;14.292;2022-10-31T15:05:09;35.84;;;35.69;;
50417;SDS011;36346;48.280;14.292;2022-10-31T15:08:13;35.65;;;35.46;;
50417;SDS011;36346;48.280;14.292;2022-10-31T15:10:44;35.49;;;35.32;;
50417;SDS011;36346;48.280;14.292;2022-10-31T15:13:17;34.77;;;34.64;;
50417;SDS011;36346;48.280;14.292;2022-10-31T15:15:47;34.91;;;34.83;;
50417;SDS011;36346;48.280;14.292;2022-10-31T15:18:24;35.50;;;35.46;;
50417;SDS011;36346;48.280;14.292;2022-10-31T15:20:54;36.22;;;36.02;;
50417;SDS011;36346;48.280;14.292;2022-10-31T15:23:25;31.88;;;31.87;;
50417;SDS011;36346;48.280;14.292;2022-10-31T15:25:59;30.74;;;30.67;;
50417;SDS011;36346;48.280;14.292;2022-10-31T15:28:28;29.38;;;29.38;;
50417;SDS011;36346;48.280;14.292;2022-10-31T15:30:59;27.20;;;27.19;;
50417;SDS011;36346;48.280;14.292;2022-10-31T15:33:40;26.35;;;26.35;;
50417;SDS011;36346;48.280;14.292;2022-10-31T15:36:21;26.72;;;26.71;;
50417;SDS011;36346;48.280;14.292;2022-10-31T15:38:57;34.67;;;34.64;;
50417;SDS011;36346;48.280;14.292;2022-10-31T15:44:01;36.72;;;36.63;;
50417;SDS011;36346;48.280;14.292;2022-10-31T15:46:39;38.07;;;38.00;;
50417;SDS011;36346;48.280;14.292;2022-10-31T15:49:29;31.01;;;30.93;;
50417;SDS011;36346;48.280;14.292;2022-10-31T15:52:25;28.34;;;28.31;;
50417;SDS011;36346;48.280;14.292;2022-10-31T15:54:58;24.78;;;24.74;;
50417;SDS011;36346;48.280;14.292;2022-10-31T15:57:29;24.15;;;24.14;;
50417;SDS011;36346;48.280;14.292;2022-10-31T15:59:58;24.53;;;24.50;;
50417;SDS011;36346;48.280;14.292;2022-10-31T16:02:26;25.44;;;25.44;;
50417;SDS011;36346;48.280;14.292;2022-10-31T16:04:57;25.30;;;25.25;;
50417;SDS011;36346;48.280;14.292;2022-10-31T16:07:28;25.51;;;25.36;;
50417;SDS011;36346;48.280;14.292;2022-10-31T16:10:00;25.54;;;25.51;;
50417;SDS011;36346;48.280;14.292;2022-10-31T16:12:41;26.11;;;26.06;;
50417;SDS011;36346;48.280;14.292;2022-10-31T16:15:16;27.37;;;27.31;;
50417;SDS011;36346;48.280;14.292;2022-10-31T16:17:49;27.95;;;27.75;;
50417;SDS011;36346;48.280;14.292;2022-10-31T16:20:21;33.23;;;33.10;;
50417;SDS011;36346;48.280;14.292;2022-10-31T16:22:53;29.23;;;29.02;;
50417;SDS011;36346;48.280;14.292;2022-10-31T16:27:57;26.45;;;26.39;;
50417;SDS011;36346;48.280;14.292;2022-10-31T16:39:03;28.43;;;27.90;;
50417;SDS011;36346;48.280;14.292;2022-10-31T16:41:34;28.57;;;28.25;;
50417;SDS011;36346;48.280;14.292;2022-10-31T16:44:13;29.19;;;28.77;;
50417;SDS011;36346;48.280;14.292;2022-10-31T16:46:45;30.44;;;29.91;;
50417;SDS011;36346;48.280;14.292;2022-10-31T16:49:13;29.76;;;29.20;;
50417;SDS011;36346;48.280;14.292;2022-10-31T16:51:43;30.16;;;29.85;;
50417;SDS011;36346;48.280;14.292;2022-10-31T16:54:11;29.35;;;29.11;;
50417;SDS011;36346;48.280;14.292;2022-10-31T16:56:39;31.06;;;30.61;;
50417;SDS011;36346;48.280;14.292;2022-10-31T16:59:09;30.34;;;29.94;;
50417;SDS011;36346;48.280;14.292;2022-10-31T17:01:42;30.02;;;29.80;;
50417;SDS011;36346;48.280;14.292;2022-10-31T17:04:16;30.82;;;30.39;;
50417;SDS011;36346;48.280;14.292;2022-10-31T17:06:44;30.60;;;30.50;;
50417;SDS011;36346;48.280;14.292;2022-10-31T17:09:12;32.55;;;32.09;;
50417;SDS011;36346;48.280;14.292;2022-10-31T17:11:43;33.30;;;32.76;;
50417;SDS011;36346;48.280;14.292;2022-10-31T17:14:16;32.38;;;31.96;;
50417;SDS011;36346;48.280;14.292;2022-10-31T17:16:45;31.20;;;31.02;;
50417;SDS011;36346;48.280;14.292;2022-10-31T17:19:13;32.24;;;31.68;;
50417;SDS011;36346;48.280;14.292;2022-10-31T17:21:41;30.57;;;30.43;;
50417;SDS011;36346;48.280;14.292;2022-10-31T17:24:18;31.18;;;30.96;;
50417;SDS011;36346;48.280;14.292;2022-10-31T17:26:46;32.64;;;32.27;;